Time;durP1;ratioP1;P1;durP2;ratioP2;P2;SDS_P1;SDS_P2;PMS_P1;PMS_P2;Temp;Humidity;BMP_temperature;BMP_pressure;BME280_temperature;BME280_humidity;BME280_pressure;Samples;Min_cycle;Max_cycle;Signal;HPM_P1;HPM_P2
2023/05/13 00:02:07;;;;;;;8.47;3.57;;;14.70;49.20;;;;;;5229500;28;20183;-49
2023/05/13 00:04:38;;;;;;;5.77;3.50;;;14.70;49.30;;;;;;5229921;28;20697;-50
2023/05/13 00:07:09;;;;;;;5.17;3.70;;;14.70;49.40;;;;;;5226747;28;20214;-48
2023/05/13 00:09:39;;;;;;;4.80;2.90;;;14.70;49.40;;;;;;5229415;28;20996;-48
2023/05/13 00:12:10;;;;;;;4.70;3.17;;;14.70;49.40;;;;;;5227779;28;20269;-50
2023/05/13 00:14:41;;;;;;;9.10;3.63;;;14.60;49.70;;;;;;5250319;22;20295;-48
2023/05/13 00:17:12;;;;;;;10.60;3.97;;;14.60;49.60;;;;;;5225051;28;20240;-48
2023/05/13 00:19:43;;;;;;;4.07;3.67;;;14.60;49.70;;;;;;5228432;28;20210;-48
2023/05/13 00:22:14;;;;;;;10.73;3.30;;;14.50;49.80;;;;;;5213491;28;20430;-50
2023/05/13 00:24:44;;;;;;;8.47;3.97;;;14.50;50.00;;;;;;5211949;28;20455;-47
2023/05/13 00:27:16;;;;;;;3.50;3.20;;;14.40;50.00;;;;;;5188329;28;20437;-46
2023/05/13 00:29:47;;;;;;;7.00;3.50;;;14.40;50.10;;;;;;5206024;28;20186;-47
2023/05/13 00:32:18;;;;;;;3.50;3.27;;;14.30;50.20;;;;;;5223099;28;20418;-47
2023/05/13 00:34:49;;;;;;;4.63;2.87;;;14.40;50.30;;;;;;5207162;28;20203;-48
2023/05/13 00:37:20;;;;;;;7.00;3.30;;;14.30;50.30;;;;;;5210115;28;20849;-50
2023/05/13 00:39:50;;;;;;;5.37;4.20;;;14.30;50.40;;;;;;5203315;28;20227;-47
2023/05/13 00:42:21;;;;;;;5.47;3.90;;;14.20;50.50;;;;;;5202858;28;20180;-48
2023/05/13 00:44:52;;;;;;;7.17;3.90;;;14.20;50.60;;;;;;5207118;28;20222;-48
2023/05/13 00:47:24;;;;;;;5.47;3.93;;;14.20;50.70;;;;;;5207247;28;20762;-47
2023/05/13 00:49:57;;;;;;;7.13;3.80;;;14.20;50.80;;;;;;5204708;28;20449;-48
2023/05/13 00:52:28;;;;;;;7.37;3.43;;;14.20;50.90;;;;;;5207500;28;20438;-49
2023/05/13 00:54:59;;;;;;;11.33;3.43;;;14.20;50.80;;;;;;5204804;28;20461;-48
2023/05/13 00:57:30;;;;;;;6.60;3.40;;;14.20;50.80;;;;;;5216615;28;20446;-48
2023/05/13 01:00:04;;;;;;;6.07;3.97;;;14.20;50.80;;;;;;5205150;28;20589;-47
2023/05/13 01:02:44;;;;;;;10.70;3.97;;;14.20;50.80;;;;;;5202296;28;20478;-46
2023/05/13 01:05:30;;;;;;;7.03;3.53;;;14.20;50.90;;;;;;5205828;28;20533;-48
2023/05/13 01:08:26;;;;;;;4.10;3.50;;;14.20;50.90;;;;;;5204642;28;20457;-47
2023/05/13 01:11:03;;;;;;;10.90;4.27;;;14.20;51.00;;;;;;5218067;28;20996;-46
2023/05/13 01:13:42;;;;;;;5.07;3.40;;;14.20;51.10;;;;;;5203430;28;20450;-46
2023/05/13 01:16:21;;;;;;;3.63;3.33;;;14.20;51.20;;;;;;5205082;28;20577;-47
2023/05/13 01:18:56;;;;;;;5.67;4.10;;;14.10;51.20;;;;;;5197360;28;20473;-46
2023/05/13 01:21:27;;;;;;;6.20;3.70;;;14.10;51.40;;;;;;5202452;28;20438;-47
2023/05/13 01:23:58;;;;;;;4.30;3.90;;;14.00;51.40;;;;;;5200147;28;21026;-49
2023/05/13 01:26:29;;;;;;;10.10;3.83;;;14.00;51.50;;;;;;5216940;28;20518;-46
2023/05/13 01:29:00;;;;;;;4.23;3.43;;;13.90;51.60;;;;;;5203324;28;20188;-46
2023/05/13 01:31:31;;;;;;;6.87;4.50;;;13.90;51.70;;;;;;5204025;28;20512;-45
2023/05/13 01:34:05;;;;;;;3.97;2.83;;;13.80;51.90;;;;;;5199866;28;20761;-46
2023/05/13 01:36:38;;;;;;;4.83;3.60;;;13.80;52.10;;;;;;5217102;28;20454;-47
2023/05/13 01:39:10;;;;;;;7.93;4.40;;;13.80;52.30;;;;;;5203114;28;22188;-47
2023/05/13 01:41:41;;;;;;;7.80;3.70;;;13.70;52.20;;;;;;5210920;28;21321;-48
2023/05/13 01:44:12;;;;;;;6.33;3.50;;;13.70;52.60;;;;;;5203540;28;20456;-49
2023/05/13 01:46:43;;;;;;;7.57;3.83;;;13.70;52.60;;;;;;5199649;28;20195;-47
2023/05/13 01:49:17;;;;;;;4.13;3.60;;;13.60;52.60;;;;;;5199085;28;20226;-47
2023/05/13 01:51:48;;;;;;;6.63;4.10;;;13.60;52.90;;;;;;5201877;28;20583;-48
2023/05/13 01:54:19;;;;;;;7.47;3.87;;;13.60;53.00;;;;;;5200169;28;20454;-47
2023/05/13 01:56:50;;;;;;;8.10;4.13;;;13.60;53.10;;;;;;5200561;28;20184;-48
2023/05/13 01:59:22;;;;;;;4.53;3.30;;;13.50;53.10;;;;;;5198295;28;20207;-47
2023/05/13 02:01:52;;;;;;;8.33;4.00;;;13.50;53.30;;;;;;5196082;28;20681;-47
2023/05/13 02:04:23;;;;;;;9.57;3.73;;;13.50;53.30;;;;;;5205732;28;20453;-48
2023/05/13 02:06:54;;;;;;;4.70;3.10;;;13.40;53.40;;;;;;5200795;28;20187;-46
2023/05/13 02:09:25;;;;;;;3.93;3.57;;;13.40;53.50;;;;;;5203351;28;20904;-46
2023/05/13 02:11:57;;;;;;;7.13;3.63;;;13.40;53.80;;;;;;5199775;28;20184;-49
2023/05/13 02:14:28;;;;;;;3.73;3.43;;;13.40;53.80;;;;;;5205055;28;20237;-48
2023/05/13 02:16:59;;;;;;;7.20;3.70;;;13.30;54.00;;;;;;5203741;28;20434;-48
2023/05/13 02:19:29;;;;;;;4.87;3.80;;;13.30;54.20;;;;;;5198715;28;20469;-49
2023/05/13 02:22:00;;;;;;;6.47;3.70;;;13.20;54.30;;;;;;5201544;28;20176;-47
2023/05/13 02:24:31;;;;;;;5.60;3.90;;;13.20;54.60;;;;;;5202219;28;20687;-49
2023/05/13 02:27:02;;;;;;;7.07;4.13;;;13.10;54.80;;;;;;5202027;28;20540;-46
2023/05/13 02:29:36;;;;;;;4.97;4.33;;;13.20;55.10;;;;;;5201628;28;20430;-47
2023/05/13 02:32:07;;;;;;;7.87;3.70;;;13.10;54.90;;;;;;5218473;28;20675;-48
2023/05/13 02:34:38;;;;;;;4.90;3.57;;;13.10;55.10;;;;;;5206287;28;20446;-46
2023/05/13 02:37:09;;;;;;;4.57;4.10;;;13.10;55.20;;;;;;5208228;28;20561;-46
2023/05/13 02:39:39;;;;;;;5.67;3.20;;;13.10;55.20;;;;;;5208797;28;20207;-47
2023/05/13 02:42:10;;;;;;;9.30;4.10;;;13.10;55.20;;;;;;5203420;28;20223;-47
2023/05/13 02:44:41;;;;;;;4.53;4.13;;;13.10;55.20;;;;;;5205890;28;20296;-46
2023/05/13 02:47:12;;;;;;;13.17;4.00;;;13.20;55.10;;;;;;5207117;28;20188;-46
2023/05/13 02:49:43;;;;;;;5.63;3.90;;;13.20;55.10;;;;;;5214921;28;20188;-46
2023/05/13 02:52:14;;;;;;;11.80;4.33;;;13.20;55.00;;;;;;5204102;28;20553;-47
2023/05/13 02:54:45;;;;;;;7.23;3.03;;;13.20;55.00;;;;;;5208490;28;20270;-47
2023/05/13 02:57:15;;;;;;;9.10;3.50;;;13.20;55.00;;;;;;5208392;28;20524;-47
2023/05/13 02:59:46;;;;;;;6.73;3.77;;;13.20;54.90;;;;;;5208909;28;20200;-46
2023/05/13 03:02:17;;;;;;;6.60;4.40;;;13.20;54.90;;;;;;5212371;28;20222;-46
2023/05/13 03:04:48;;;;;;;6.20;4.07;;;13.20;55.00;;;;;;5204018;28;20542;-47
2023/05/13 03:07:18;;;;;;;4.90;3.73;;;13.10;55.00;;;;;;5205106;28;20238;-46
2023/05/13 03:09:49;;;;;;;3.40;3.03;;;13.10;55.20;;;;;;5206783;28;20184;-48
2023/05/13 03:12:20;;;;;;;5.10;3.27;;;13.10;55.10;;;;;;5208271;28;20522;-48
2023/05/13 03:14:51;;;;;;;9.37;4.23;;;13.00;55.20;;;;;;5207697;28;20224;-47
2023/05/13 03:17:23;;;;;;;7.77;3.80;;;13.00;55.20;;;;;;5208586;28;20524;-46
2023/05/13 03:19:54;;;;;;;5.30;4.27;;;13.00;55.30;;;;;;5203586;28;20978;-46
2023/05/13 03:22:25;;;;;;;8.10;3.90;;;13.00;55.30;;;;;;5209365;28;20477;-48
2023/05/13 03:24:57;;;;;;;4.73;3.37;;;12.90;55.60;;;;;;5211930;28;20200;-46
2023/05/13 03:27:28;;;;;;;5.47;3.97;;;12.90;55.80;;;;;;5207209;28;20545;-47
2023/05/13 03:29:58;;;;;;;4.30;3.90;;;12.80;55.80;;;;;;5205076;28;20569;-47
2023/05/13 03:32:30;;;;;;;3.60;3.40;;;12.80;56.00;;;;;;5207546;28;20618;-46
2023/05/13 03:35:01;;;;;;;7.70;4.37;;;12.80;56.20;;;;;;5206016;28;20210;-46
2023/05/13 03:37:32;;;;;;;4.70;4.00;;;12.80;56.90;;;;;;5205078;28;20434;-47
2023/05/13 03:40:03;;;;;;;3.90;3.50;;;12.80;56.20;;;;;;5205397;28;20207;-48
2023/05/13 03:42:34;;;;;;;7.50;4.60;;;12.70;56.60;;;;;;5206568;28;20729;-46
2023/05/13 03:45:06;;;;;;;14.33;3.93;;;12.80;56.30;;;;;;5209517;28;20451;-48
2023/05/13 03:47:40;;;;;;;4.90;3.43;;;12.80;56.30;;;;;;5221453;28;20188;-46
2023/05/13 03:50:10;;;;;;;4.50;4.10;;;12.80;56.30;;;;;;5205751;28;20991;-46
2023/05/13 03:52:41;;;;;;;5.63;4.33;;;12.80;56.40;;;;;;5205702;28;20541;-48
2023/05/13 03:55:13;;;;;;;3.57;3.30;;;12.80;56.50;;;;;;5210171;28;20219;-46
2023/05/13 03:57:47;;;;;;;6.03;4.30;;;12.70;56.60;;;;;;5204373;28;20668;-47
2023/05/13 04:00:18;;;;;;;3.93;3.63;;;12.70;56.60;;;;;;5202095;28;20499;-48
2023/05/13 04:02:49;;;;;;;9.47;3.50;;;12.80;56.90;;;;;;5203140;28;20470;-47
2023/05/13 04:05:21;;;;;;;4.47;4.17;;;12.80;56.80;;;;;;5223625;28;20743;-46
2023/05/13 04:07:51;;;;;;;11.27;4.40;;;12.80;56.70;;;;;;5204301;28;20666;-47
2023/05/13 04:10:22;;;;;;;5.23;3.77;;;12.80;56.70;;;;;;5211232;28;20446;-47
2023/05/13 04:12:53;;;;;;;10.80;4.83;;;12.80;56.60;;;;;;5203370;28;20241;-48
2023/05/13 04:15:25;;;;;;;11.53;4.77;;;12.90;56.60;;;;;;5205819;28;20285;-47
2023/05/13 04:17:57;;;;;;;8.40;3.97;;;12.90;56.20;;;;;;5202873;28;20438;-47
2023/05/13 04:20:30;;;;;;;4.27;4.00;;;13.00;56.20;;;;;;5203390;28;20467;-46
2023/05/13 04:23:01;;;;;;;6.97;4.00;;;13.00;55.90;;;;;;5205633;28;20438;-48
2023/05/13 04:25:34;;;;;;;8.33;4.63;;;13.00;55.60;;;;;;5200588;28;20462;-46
2023/05/13 04:28:05;;;;;;;7.27;4.27;;;13.10;55.70;;;;;;5202438;28;20668;-46
2023/05/13 04:30:37;;;;;;;4.10;3.70;;;13.10;55.60;;;;;;5211698;28;20446;-47
2023/05/13 04:33:08;;;;;;;5.97;4.27;;;13.10;55.70;;;;;;5199348;28;20447;-45
2023/05/13 04:35:39;;;;;;;8.30;3.80;;;13.20;55.60;;;;;;5205658;28;20475;-48
2023/05/13 04:38:10;;;;;;;6.43;3.73;;;13.30;55.20;;;;;;5198817;28;20462;-46
2023/05/13 04:40:44;;;;;;;4.17;3.77;;;13.40;54.60;;;;;;5183807;28;20219;-48
2023/05/13 04:43:15;;;;;;;5.93;3.70;;;13.50;54.50;;;;;;5202686;28;20465;-47
2023/05/13 04:45:47;;;;;;;4.23;3.67;;;13.70;54.30;;;;;;5199627;28;20458;-47
2023/05/13 04:48:18;;;;;;;5.27;3.80;;;13.90;54.00;;;;;;5203638;28;20561;-48
2023/05/13 04:50:50;;;;;;;4.23;3.87;;;14.90;52.80;;;;;;5211350;28;20442;-47
2023/05/13 04:53:20;;;;;;;6.60;3.70;;;16.60;49.30;;;;;;5201836;28;20183;-49
2023/05/13 04:55:56;;;;;;;6.57;3.30;;;17.70;45.80;;;;;;5203571;28;20477;-46
2023/05/13 04:58:27;;;;;;;5.27;3.50;;;17.60;45.20;;;;;;5198119;28;20187;-46
2023/05/13 05:00:58;;;;;;;3.80;3.20;;;18.30;44.90;;;;;;5169467;28;20457;-48
2023/05/13 05:03:28;;;;;;;6.30;4.43;;;19.30;42.80;;;;;;5211511;28;20448;-47
2023/05/13 05:06:00;;;;;;;6.60;4.03;;;20.00;41.60;;;;;;5204591;28;20184;-47
2023/05/13 05:08:30;;;;;;;9.77;3.57;;;20.80;39.60;;;;;;5217451;28;20775;-46
2023/05/13 05:11:01;;;;;;;3.97;3.60;;;21.00;38.40;;;;;;5202499;28;20190;-46
2023/05/13 05:13:32;;;;;;;4.27;3.27;;;21.30;38.40;;;;;;5202406;28;20256;-48
2023/05/13 05:16:07;;;;;;;6.23;3.73;;;21.80;37.60;;;;;;5204045;28;20192;-47
2023/05/13 05:18:42;;;;;;;10.30;3.70;;;22.40;36.80;;;;;;5210234;28;20188;-47
2023/05/13 05:21:13;;;;;;;7.90;3.30;;;22.60;36.30;;;;;;5200563;28;20469;-47
2023/05/13 05:23:44;;;;;;;3.20;3.00;;;23.00;35.40;;;;;;5206832;28;20430;-47
2023/05/13 05:26:18;;;;;;;6.00;3.60;;;23.20;35.00;;;;;;5211164;28;20446;-48
2023/05/13 05:28:49;;;;;;;3.90;3.70;;;23.30;34.60;;;;;;5202364;28;20518;-47
2023/05/13 05:31:19;;;;;;;4.70;3.67;;;23.50;34.30;;;;;;5205201;28;20493;-48
2023/05/13 05:33:50;;;;;;;4.50;3.20;;;23.50;34.30;;;;;;5200586;28;20634;-48
2023/05/13 05:36:21;;;;;;;6.47;3.67;;;23.90;33.40;;;;;;5202733;28;20932;-47
2023/05/13 05:38:52;;;;;;;3.40;3.10;;;24.10;33.10;;;;;;5197114;28;20187;-49
2023/05/13 05:41:23;;;;;;;8.87;3.53;;;24.80;32.50;;;;;;5184837;28;20215;-48
2023/05/13 05:43:54;;;;;;;4.43;3.10;;;25.50;31.20;;;;;;5202295;28;20471;-47
2023/05/13 05:46:25;;;;;;;4.07;3.77;;;25.90;30.50;;;;;;5202611;28;20434;-48
2023/05/13 05:48:56;;;;;;;3.93;3.07;;;26.10;29.90;;;;;;5206961;28;20555;-50
2023/05/13 05:51:26;;;;;;;6.03;3.27;;;26.00;30.00;;;;;;5204823;28;20662;-49
2023/05/13 05:53:57;;;;;;;2.90;2.57;;;26.30;29.30;;;;;;5206668;28;20902;-47
2023/05/13 05:56:28;;;;;;;4.57;2.93;;;26.30;29.00;;;;;;5210863;28;20191;-47
2023/05/13 05:58:59;;;;;;;5.13;2.97;;;26.50;28.90;;;;;;5219311;28;20195;-50
2023/05/13 06:01:32;;;;;;;5.03;3.20;;;26.70;28.40;;;;;;5203863;28;20230;-49
2023/05/13 06:04:04;;;;;;;6.20;3.63;;;26.90;28.30;;;;;;5209641;28;20227;-47
2023/05/13 06:06:35;;;;;;;3.33;3.13;;;26.90;28.20;;;;;;5203240;28;20787;-49
2023/05/13 06:09:06;;;;;;;2.80;2.60;;;27.30;27.80;;;;;;5200857;28;20846;-49
2023/05/13 06:11:36;;;;;;;2.63;2.43;;;27.70;28.30;;;;;;5206352;28;20441;-49
2023/05/13 06:14:07;;;;;;;4.03;2.83;;;27.00;27.50;;;;;;5215028;22;20195;-49
2023/05/13 06:16:38;;;;;;;7.27;3.63;;;26.70;28.10;;;;;;5224649;28;20171;-49
2023/05/13 06:19:08;;;;;;;5.00;3.23;;;26.50;27.80;;;;;;5222876;28;21692;-50
2023/05/13 06:21:40;;;;;;;4.07;3.00;;;26.70;28.20;;;;;;5227939;28;21508;-50
2023/05/13 06:24:11;;;;;;;2.70;2.53;;;26.90;27.70;;;;;;5230785;28;20167;-50
2023/05/13 06:26:43;;;;;;;2.80;2.60;;;27.00;27.90;;;;;;5229889;28;20456;-49
2023/05/13 06:29:13;;;;;;;5.03;3.07;;;27.10;27.80;;;;;;5219743;28;20388;-49
2023/05/13 06:31:44;;;;;;;3.10;2.87;;;27.60;27.30;;;;;;5222628;28;20495;-49
2023/05/13 06:34:15;;;;;;;4.10;2.90;;;27.20;26.40;;;;;;5230919;28;20222;-51
2023/05/13 06:36:46;;;;;;;3.67;3.37;;;26.70;27.50;;;;;;5225412;28;20178;-51
2023/05/13 06:39:16;;;;;;;5.67;2.60;;;27.20;27.60;;;;;;5222719;28;20444;-49
2023/05/13 06:41:47;;;;;;;6.33;3.20;;;27.60;27.10;;;;;;5222608;28;20550;-50
2023/05/13 06:44:18;;;;;;;4.77;3.50;;;27.80;27.00;;;;;;5215544;28;20350;-50
2023/05/13 06:46:48;;;;;;;5.10;2.70;;;27.50;26.90;;;;;;5220237;28;20876;-48
2023/05/13 06:49:19;;;;;;;3.40;2.70;;;27.30;27.50;;;;;;5227400;28;20191;-48
2023/05/13 06:51:50;;;;;;;4.20;3.17;;;27.40;27.20;;;;;;5221815;28;20248;-50
2023/05/13 06:54:20;;;;;;;4.47;2.80;;;27.20;27.30;;;;;;5210265;28;20226;-51
2023/05/13 06:56:52;;;;;;;6.13;3.03;;;27.20;27.00;;;;;;5216580;28;21598;-50
2023/05/13 06:59:23;;;;;;;2.73;2.53;;;26.70;27.50;;;;;;5214669;28;20538;-50
2023/05/13 07:01:53;;;;;;;4.90;2.70;;;26.20;27.80;;;;;;5217350;28;20438;-49
2023/05/13 07:04:24;;;;;;;4.90;2.60;;;26.00;27.60;;;;;;5220525;28;20218;-51
2023/05/13 07:06:56;;;;;;;2.90;2.80;;;26.00;27.50;;;;;;5214442;28;20171;-52
2023/05/13 07:09:27;;;;;;;6.47;3.23;;;25.80;27.80;;;;;;5225897;28;20201;-51
2023/05/13 07:11:57;;;;;;;4.17;3.03;;;26.30;28.30;;;;;;5224959;28;20529;-52
2023/05/13 07:14:28;;;;;;;2.80;2.60;;;26.60;27.60;;;;;;5224305;28;20694;-50
2023/05/13 07:16:58;;;;;;;3.73;2.67;;;26.80;27.30;;;;;;5224983;28;20210;-51
2023/05/13 07:19:30;;;;;;;3.00;2.80;;;27.10;27.10;;;;;;5217162;28;20257;-50
2023/05/13 07:22:00;;;;;;;5.30;2.20;;;26.70;26.70;;;;;;5213928;28;20950;-50
2023/05/13 07:24:31;;;;;;;7.43;2.63;;;26.40;27.10;;;;;;5214956;28;20484;-49
2023/05/13 07:27:03;;;;;;;2.53;2.40;;;26.30;26.80;;;;;;5207022;28;20190;-50
2023/05/13 07:29:34;;;;;;;2.37;2.27;;;26.00;26.80;;;;;;5217295;28;20193;-50
2023/05/13 07:32:05;;;;;;;2.60;2.43;;;26.70;26.10;;;;;;5214063;28;20426;-50
2023/05/13 07:34:36;;;;;;;2.10;2.00;;;26.90;25.80;;;;;;5226093;28;20199;-51
2023/05/13 07:37:07;;;;;;;3.60;2.23;;;26.70;25.40;;;;;;5215746;28;20441;-52
2023/05/13 07:39:37;;;;;;;2.90;2.70;;;26.50;25.30;;;;;;5219144;28;20785;-50
2023/05/13 07:42:08;;;;;;;5.53;2.50;;;26.10;26.20;;;;;;5219480;28;20179;-50
2023/05/13 07:44:39;;;;;;;2.57;2.40;;;26.30;26.30;;;;;;5222914;28;20287;-51
2023/05/13 07:47:10;;;;;;;9.23;2.40;;;26.20;25.30;;;;;;5213489;28;23819;-50
2023/05/13 07:49:40;;;;;;;11.63;2.27;;;26.40;25.40;;;;;;5223300;28;20196;-50
2023/05/13 07:52:11;;;;;;;2.13;2.03;;;26.20;25.30;;;;;;5216335;28;20202;-50
2023/05/13 07:54:42;;;;;;;2.90;2.60;;;25.70;24.60;;;;;;5217199;28;20241;-49
2023/05/13 07:57:12;;;;;;;2.23;2.13;;;24.90;25.30;;;;;;5222486;28;20202;-52
2023/05/13 07:59:43;;;;;;;4.77;2.40;;;25.70;25.70;;;;;;5221535;28;20238;-51
2023/05/13 08:02:14;;;;;;;20.03;2.70;;;26.70;24.80;;;;;;5224869;28;20179;-51
2023/05/13 08:04:45;;;;;;;2.50;2.30;;;26.30;24.80;;;;;;5221174;28;20460;-49
2023/05/13 08:07:16;;;;;;;6.23;2.80;;;26.10;24.60;;;;;;5222051;28;20270;-51
2023/05/13 08:09:46;;;;;;;2.70;2.30;;;25.60;25.40;;;;;;5218360;28;20188;-51
2023/05/13 08:12:17;;;;;;;2.03;1.93;;;25.20;25.50;;;;;;5215333;28;20252;-51
2023/05/13 08:14:47;;;;;;;2.25;2.15;;;25.00;26.20;;;;;;5212442;28;20840;-55
2023/05/13 08:17:18;;;;;;;2.57;2.13;;;24.30;26.50;;;;;;5216733;28;20248;-51
2023/05/13 08:19:50;;;;;;;5.03;2.13;;;24.40;27.60;;;;;;5214805;28;20207;-50
2023/05/13 08:22:20;;;;;;;6.73;3.00;;;24.50;27.20;;;;;;5220829;28;20185;-51
2023/05/13 08:24:51;;;;;;;8.00;2.30;;;24.60;28.40;;;;;;5217111;28;21289;-48
2023/05/13 08:27:21;;;;;;;6.80;2.97;;;24.00;27.70;;;;;;5217759;28;20588;-48
2023/05/13 08:29:52;;;;;;;5.03;1.93;;;23.20;28.50;;;;;;5222794;28;20214;-53
2023/05/13 08:32:23;;;;;;;3.30;3.00;;;23.00;28.80;;;;;;5219120;28;20268;-48
2023/05/13 08:34:53;;;;;;;3.47;2.23;;;23.10;29.40;;;;;;5220137;28;20234;-55
2023/05/13 08:37:24;;;;;;;7.50;2.70;;;23.20;28.90;;;;;;5221461;28;20187;-53
2023/05/13 08:39:55;;;;;;;2.17;2.07;;;23.20;29.20;;;;;;5221768;28;20219;-47
2023/05/13 08:42:31;;;;;;;5.53;2.80;;;23.50;29.00;;;;;;5227142;28;20540;-52
2023/05/13 08:45:06;;;;;;;6.40;2.70;;;22.50;29.50;;;;;;5226169;28;20461;-49
2023/05/13 08:47:51;;;;;;;3.80;2.93;;;22.30;30.20;;;;;;5226390;28;20440;-47
2023/05/13 08:50:22;;;;;;;4.40;2.93;;;22.40;30.10;;;;;;5223910;28;20441;-49
2023/05/13 08:52:56;;;;;;;3.60;2.30;;;21.80;30.00;;;;;;5224661;28;20502;-47
2023/05/13 08:55:27;;;;;;;2.90;2.67;;;21.10;31.10;;;;;;5222968;28;20262;-50
2023/05/13 08:57:58;;;;;;;8.53;2.80;;;20.60;31.70;;;;;;5218540;28;20448;-48
2023/05/13 09:00:29;;;;;;;4.87;2.70;;;20.30;32.40;;;;;;5218508;28;20464;-49
2023/05/13 09:03:00;;;;;;;5.70;2.77;;;20.30;33.00;;;;;;5215815;28;20582;-50
2023/05/13 09:05:32;;;;;;;2.00;2.00;;;20.30;32.40;;;;;;5211433;28;20462;-49
2023/05/13 09:08:07;;;;;;;3.43;2.03;;;20.20;31.70;;;;;;5208923;28;20434;-49
2023/05/13 09:10:38;;;;;;;4.20;2.50;;;20.00;31.40;;;;;;5211458;28;20988;-49
2023/05/13 09:13:10;;;;;;;9.33;2.80;;;19.70;31.20;;;;;;5221973;28;20468;-50
2023/05/13 09:15:42;;;;;;;5.90;2.40;;;19.80;32.00;;;;;;5217582;28;21150;-50
2023/05/13 09:18:14;;;;;;;4.33;3.00;;;19.90;32.10;;;;;;5209948;28;20773;-49
2023/05/13 09:20:45;;;;;;;2.20;2.10;;;20.20;32.50;;;;;;5216395;28;20990;-49
2023/05/13 09:23:17;;;;;;;3.13;2.70;;;20.30;31.50;;;;;;5222387;28;20544;-53
2023/05/13 09:25:48;;;;;;;2.53;2.33;;;20.20;31.70;;;;;;5236232;28;20209;-49
2023/05/13 09:28:18;;;;;;;4.03;2.03;;;20.10;31.60;;;;;;5223839;28;20429;-48
2023/05/13 09:30:55;;;;;;;2.40;1.83;;;20.10;31.60;;;;;;5220544;28;20802;-50
2023/05/13 09:33:29;;;;;;;2.20;2.10;;;20.00;31.90;;;;;;5219918;28;20216;-50
2023/05/13 09:36:03;;;;;;;2.37;2.17;;;20.10;32.10;;;;;;5221296;28;20457;-49
2023/05/13 09:38:37;;;;;;;5.27;3.10;;;20.20;32.00;;;;;;5218235;28;20552;-49
2023/05/13 09:41:09;;;;;;;2.43;2.33;;;20.30;31.70;;;;;;5221806;28;21021;-49
2023/05/13 09:43:40;;;;;;;2.33;2.10;;;20.30;31.50;;;;;;5219428;28;20941;-49
2023/05/13 09:46:11;;;;;;;3.63;2.13;;;20.30;31.70;;;;;;5219303;28;20552;-49
2023/05/13 09:48:42;;;;;;;2.50;2.40;;;20.30;31.70;;;;;;5217723;28;20795;-47
2023/05/13 09:51:14;;;;;;;5.50;2.20;;;20.20;30.80;;;;;;5224982;28;20191;-48
2023/05/13 09:53:46;;;;;;;4.87;2.20;;;20.30;31.60;;;;;;5217518;28;20175;-49
2023/05/13 09:56:20;;;;;;;3.47;2.10;;;20.50;31.60;;;;;;5198731;28;20469;-50
2023/05/13 09:58:51;;;;;;;2.40;2.20;;;20.70;30.70;;;;;;5220326;28;21232;-50
2023/05/13 10:01:24;;;;;;;2.23;2.13;;;20.90;30.30;;;;;;5212593;28;20509;-49
2023/05/13 10:03:58;;;;;;;9.27;3.13;;;21.00;29.50;;;;;;5220812;28;20185;-49
2023/05/13 10:06:29;;;;;;;9.77;2.30;;;21.10;29.40;;;;;;5214119;28;20437;-50
2023/05/13 10:09:04;;;;;;;2.67;1.87;;;21.10;28.60;;;;;;5217610;28;20441;-49
2023/05/13 10:11:35;;;;;;;2.50;2.00;;;21.00;28.20;;;;;;5224633;28;20472;-50
2023/05/13 10:14:07;;;;;;;2.77;2.60;;;20.80;28.70;;;;;;5221962;28;20966;-51
2023/05/13 10:16:38;;;;;;;8.13;2.20;;;20.80;28.10;;;;;;5223577;28;20859;-51
2023/05/13 10:19:09;;;;;;;3.37;2.03;;;20.90;28.40;;;;;;5219846;28;20433;-50
2023/05/13 10:21:40;;;;;;;7.70;2.60;;;21.00;28.40;;;;;;5225429;28;20207;-49
2023/05/13 10:24:12;;;;;;;3.90;2.10;;;20.90;28.10;;;;;;5219689;28;20434;-50
2023/05/13 10:26:44;;;;;;;3.10;2.00;;;21.10;28.30;;;;;;5224365;28;20430;-49
2023/05/13 10:29:16;;;;;;;2.60;2.40;;;21.20;28.30;;;;;;5221062;28;20436;-49
2023/05/13 10:31:48;;;;;;;2.20;1.90;;;21.20;28.20;;;;;;5221937;28;20437;-51
2023/05/13 10:34:20;;;;;;;7.60;1.97;;;21.10;28.50;;;;;;5222809;28;20449;-50
2023/05/13 10:37:02;;;;;;;2.77;2.30;;;20.90;28.20;;;;;;5222573;28;20449;-51
2023/05/13 10:40:10;;;;;;;2.20;2.03;;;20.80;28.50;;;;;;5224191;28;20429;-52
2023/05/13 10:42:45;;;;;;;3.77;2.00;;;20.70;28.30;;;;;;5224673;28;20443;-50
2023/05/13 10:45:16;;;;;;;3.50;2.23;;;20.60;28.80;;;;;;5222695;28;20441;-50
2023/05/13 10:47:50;;;;;;;2.40;2.30;;;20.80;28.70;;;;;;5222045;28;20913;-50
2023/05/13 10:50:24;;;;;;;15.47;2.17;;;20.90;28.80;;;;;;5220278;28;20232;-49
2023/05/13 10:52:57;;;;;;;2.20;2.00;;;20.90;28.10;;;;;;5225176;28;20835;-51
2023/05/13 10:55:28;;;;;;;2.07;1.97;;;20.90;28.10;;;;;;5220895;28;20465;-51
2023/05/13 10:58:14;;;;;;;7.53;1.90;;;21.00;28.20;;;;;;5223833;28;20448;-50
2023/05/13 11:00:45;;;;;;;3.90;2.00;;;21.00;27.80;;;;;;5227054;28;20194;-49
2023/05/13 11:03:18;;;;;;;5.20;2.10;;;20.90;27.40;;;;;;5217790;28;20425;-49
2023/05/13 11:05:59;;;;;;;7.03;2.47;;;21.00;26.90;;;;;;5220586;28;20543;-50
2023/05/13 11:08:42;;;;;;;2.00;1.87;;;20.90;26.90;;;;;;5219362;28;20490;-48
2023/05/13 11:11:21;;;;;;;2.13;1.97;;;21.00;26.60;;;;;;5222442;28;20434;-50
2023/05/13 11:13:55;;;;;;;3.13;2.43;;;21.00;26.70;;;;;;5223407;28;20480;-50
2023/05/13 11:16:25;;;;;;;9.50;1.77;;;21.10;27.00;;;;;;5218886;28;20450;-50
2023/05/13 11:18:57;;;;;;;11.63;2.07;;;21.10;26.70;;;;;;5226659;28;20424;-50
2023/05/13 11:21:33;;;;;;;1.30;1.30;;;21.10;27.20;;;;;;5221809;28;20268;-51
2023/05/13 11:24:06;;;;;;;4.10;1.83;;;20.80;27.00;;;;;;5225691;28;20575;-52
2023/05/13 11:26:57;;;;;;;7.30;1.63;;;20.80;27.50;;;;;;5221601;28;20453;-49
2023/05/13 11:29:33;;;;;;;3.03;2.23;;;20.70;27.10;;;;;;5219231;28;20441;-49
2023/05/13 11:32:05;;;;;;;1.77;1.67;;;20.70;26.80;;;;;;5224528;28;20478;-49
2023/05/13 11:34:37;;;;;;;6.90;1.67;;;20.80;27.80;;;;;;5225712;28;20481;-49
2023/05/13 11:37:09;;;;;;;3.70;1.60;;;21.00;27.50;;;;;;5221438;28;20427;-49
2023/05/13 11:39:40;;;;;;;9.37;2.30;;;21.10;27.40;;;;;;5227898;28;20492;-48
2023/05/13 11:42:11;;;;;;;2.40;2.30;;;21.00;27.50;;;;;;5226147;28;20460;-48
2023/05/13 11:44:46;;;;;;;4.93;2.13;;;21.10;27.80;;;;;;5224516;28;20499;-51
2023/05/13 11:47:26;;;;;;;4.10;1.77;;;21.20;27.70;;;;;;5225839;28;20175;-50
2023/05/13 11:49:57;;;;;;;4.20;2.20;;;21.30;27.20;;;;;;5224212;28;20466;-49
2023/05/13 11:52:28;;;;;;;2.27;2.13;;;21.30;27.40;;;;;;5224620;28;20443;-51
2023/05/13 11:54:59;;;;;;;2.30;2.10;;;21.40;27.30;;;;;;5226698;28;20479;-49
2023/05/13 11:57:33;;;;;;;4.30;1.37;;;21.50;27.20;;;;;;5226617;28;20621;-51
2023/05/13 12:00:06;;;;;;;2.83;1.97;;;21.50;27.30;;;;;;5225508;28;20347;-51
2023/05/13 12:02:39;;;;;;;3.03;1.70;;;21.50;27.10;;;;;;5210516;28;20473;-50
2023/05/13 12:05:10;;;;;;;6.63;1.70;;;21.50;27.30;;;;;;5222228;28;20546;-48
2023/05/13 12:07:42;;;;;;;3.50;1.87;;;21.50;27.30;;;;;;5224391;28;20429;-48
2023/05/13 12:10:13;;;;;;;4.47;2.20;;;21.60;27.50;;;;;;5221385;28;20425;-50
2023/05/13 12:12:45;;;;;;;7.13;1.90;;;21.60;27.10;;;;;;5225776;28;20460;-49
2023/05/13 12:15:18;;;;;;;7.10;2.17;;;21.60;27.20;;;;;;5235978;22;20601;-45
2023/05/13 12:17:49;;;;;;;4.67;2.20;;;21.80;27.90;;;;;;5220824;28;20429;-46
2023/05/13 12:20:21;;;;;;;12.20;2.83;;;21.90;27.20;;;;;;5224344;28;20446;-47
2023/05/13 12:22:55;;;;;;;4.20;1.80;;;21.60;26.70;;;;;;5219749;28;20434;-46
2023/05/13 12:25:36;;;;;;;2.40;2.20;;;21.50;26.40;;;;;;5212318;28;20474;-47
2023/05/13 12:28:19;;;;;;;1.90;1.80;;;21.60;26.60;;;;;;5202290;28;20872;-47
2023/05/13 12:31:00;;;;;;;2.10;1.63;;;21.60;26.40;;;;;;5204331;28;20497;-47
2023/05/13 12:33:33;;;;;;;1.80;1.70;;;21.50;27.00;;;;;;5204490;28;20496;-46
2023/05/13 12:36:30;;;;;;;8.13;2.83;;;21.40;27.30;;;;;;5204876;28;20465;-48
2023/05/13 12:39:07;;;;;;;1.83;1.70;;;21.70;27.50;;;;;;5199831;28;20435;-46
2023/05/13 12:41:40;;;;;;;6.63;1.97;;;22.10;27.30;;;;;;5201404;28;20548;-45
2023/05/13 12:44:14;;;;;;;10.10;2.40;;;22.20;26.90;;;;;;5198794;28;20434;-48
2023/05/13 12:46:52;;;;;;;15.57;2.47;;;22.40;27.30;;;;;;5200717;28;20970;-48
2023/05/13 12:49:23;;;;;;;1.93;1.83;;;22.50;27.60;;;;;;5217084;28;20486;-46
2023/05/13 12:51:55;;;;;;;2.37;2.07;;;22.40;28.10;;;;;;5203479;28;20426;-48
2023/05/13 12:54:26;;;;;;;5.00;2.50;;;22.20;27.80;;;;;;5199799;28;20445;-47
2023/05/13 12:56:56;;;;;;;2.13;2.03;;;22.10;27.50;;;;;;5208890;28;20745;-46
2023/05/13 12:59:28;;;;;;;3.43;2.20;;;22.00;27.90;;;;;;5216985;28;20576;-47
2023/05/13 13:01:59;;;;;;;10.73;2.00;;;22.20;27.90;;;;;;5197759;28;20240;-46
2023/05/13 13:04:29;;;;;;;5.27;1.50;;;22.30;27.60;;;;;;5203593;28;21001;-47
2023/05/13 13:07:00;;;;;;;4.60;1.87;;;22.20;27.50;;;;;;5200338;28;20241;-47
2023/05/13 13:09:31;;;;;;;3.27;1.97;;;22.20;27.90;;;;;;5199850;28;20195;-45
2023/05/13 13:12:01;;;;;;;5.07;2.20;;;22.20;28.00;;;;;;5215453;28;20658;-48